Time;durP1;ratioP1;P1;durP2;ratioP2;P2;SDS_P1;SDS_P2;PMS_P1;PMS_P2;Temp;Humidity;BMP_temperature;BMP_pressure;BME280_temperature;BME280_humidity;BME280_pressure;Samples;Min_cycle;Max_cycle;Signal;HPM_P1;HPM_P2
2023/10/15 00:00:19;;;;;;;14.30;9.40;;;;;;;10.74;100.00;100842.17;109588;1251;60078;-75
2023/10/15 00:02:51;;;;;;;15.20;10.10;;;;;;;10.69;100.00;100839.98;109597;1251;74168;-74
2023/10/15 00:05:22;;;;;;;13.30;9.30;;;;;;;10.65;100.00;100837.60;109594;1251;63627;-75
2023/10/15 00:07:50;;;;;;;13.80;8.00;;;;;;;10.60;100.00;100833.70;109619;1251;72666;-75
2023/10/15 00:10:20;;;;;;;9.10;8.10;;;;;;;10.55;100.00;100834.52;109544;1253;60977;-74
2023/10/15 00:12:50;;;;;;;12.30;8.40;;;;;;;10.50;100.00;100834.46;109625;1251;60157;-75
2023/10/15 00:15:18;;;;;;;11.20;8.60;;;;;;;10.45;100.00;100830.67;109580;1251;72916;-73
2023/10/15 00:17:47;;;;;;;11.30;8.30;;;;;;;10.42;100.00;100831.20;109620;1251;63582;-74
2023/10/15 00:20:19;;;;;;;10.60;7.80;;;;;;;10.38;100.00;100829.50;109602;1251;72485;-75
2023/10/15 00:22:48;;;;;;;11.60;8.40;;;;;;;10.33;100.00;100827.83;109596;1254;60456;-74
2023/10/15 00:25:17;;;;;;;11.80;8.10;;;;;;;10.29;100.00;100822.64;109645;1251;58746;-74
2023/10/15 00:27:54;;;;;;;11.00;8.10;;;;;;;10.27;100.00;100818.02;109588;1251;72666;-75
2023/10/15 00:30:31;;;;;;;10.50;8.00;;;;;;;10.26;100.00;100813.70;109668;1251;63653;-75
2023/10/15 00:33:03;;;;;;;12.80;8.50;;;;;;;10.26;100.00;100815.83;109409;1256;72593;-73
2023/10/15 00:35:33;;;;;;;11.50;7.40;;;;;;;10.25;100.00;100812.71;109605;1251;60395;-74
2023/10/15 00:38:11;;;;;;;12.50;8.00;;;;;;;10.24;100.00;100807.52;109615;1253;58824;-74
2023/10/15 00:40:38;;;;;;;12.60;7.40;;;;;;;10.23;100.00;100805.69;109634;1251;72594;-73
2023/10/15 00:43:07;;;;;;;9.40;7.60;;;;;;;10.22;100.00;100802.93;109631;1251;63648;-74
2023/10/15 00:45:45;;;;;;;12.00;8.60;;;;;;;10.22;100.00;100803.30;109659;1251;72736;-74
2023/10/15 00:48:36;;;;;;;12.20;7.90;;;;;;;10.21;100.00;100800.91;109517;1251;61710;-74
2023/10/15 00:51:11;;;;;;;13.10;8.10;;;;;;;10.19;100.00;100802.40;109598;1251;60192;-73
2023/10/15 00:53:49;;;;;;;11.30;7.90;;;;;;;10.17;100.00;100801.63;109657;1251;72493;-74
2023/10/15 00:56:23;;;;;;;11.10;7.20;;;;;;;10.15;100.00;100802.06;109671;1251;62292;-74
2023/10/15 01:01:34;;;;;;;11.60;7.50;;;;;;;10.09;100.00;100800.34;109629;1253;61627;-74
2023/10/15 01:04:07;;;;;;;10.20;7.20;;;;;;;10.04;100.00;100800.61;109665;1251;58762;-74
2023/10/15 01:09:09;;;;;;;12.50;9.10;;;;;;;9.97;100.00;100791.71;109524;1251;63490;-73
2023/10/15 01:11:44;;;;;;;11.70;8.70;;;;;;;9.96;100.00;100791.27;109639;1251;70121;-74
2023/10/15 01:14:13;;;;;;;11.80;8.90;;;;;;;9.94;100.00;100787.34;109447;1254;61688;-73
2023/10/15 01:16:40;;;;;;;10.20;8.00;;;;;;;9.94;100.00;100783.67;109609;1251;59993;-74
2023/10/15 01:21:52;;;;;;;12.10;9.40;;;;;;;9.92;100.00;100779.04;109633;1251;63669;-74
2023/10/15 01:24:22;;;;;;;18.40;11.40;;;;;;;9.92;100.00;100779.59;109573;1251;71442;-74
2023/10/15 01:27:00;;;;;;;14.70;9.30;;;;;;;9.91;100.00;100780.65;109552;1251;60490;-74
2023/10/15 01:29:28;;;;;;;10.70;8.00;;;;;;;9.91;100.00;100783.32;109558;1251;59973;-74
2023/10/15 01:31:58;;;;;;;10.80;7.80;;;;;;;9.90;100.00;100781.25;109538;1251;73962;-73
2023/10/15 01:34:27;;;;;;;9.30;7.40;;;;;;;9.89;100.00;100781.51;109613;1251;62409;-74
2023/10/15 01:36:57;;;;;;;11.50;8.40;;;;;;;9.86;100.00;100780.95;109598;1251;71506;-73
2023/10/15 01:39:38;;;;;;;13.20;7.20;;;;;;;9.83;100.00;100779.75;109590;1254;61772;-73
2023/10/15 01:42:07;;;;;;;10.90;7.60;;;;;;;9.77;100.00;100781.63;109664;1251;60024;-74
2023/10/15 01:44:47;;;;;;;8.20;7.10;;;;;;;9.72;100.00;100778.59;109609;1251;73112;-74
2023/10/15 01:47:16;;;;;;;11.20;7.70;;;;;;;9.66;100.00;100773.99;109581;1251;63579;-75
2023/10/15 01:49:46;;;;;;;12.90;8.60;;;;;;;9.61;100.00;100770.14;109471;1252;72629;-75
2023/10/15 01:52:24;;;;;;;10.70;8.30;;;;;;;9.54;100.00;100769.77;109559;1254;60803;-75
2023/10/15 01:54:53;;;;;;;12.20;8.20;;;;;;;9.50;100.00;100764.74;109532;1251;58911;-74
2023/10/15 01:57:22;;;;;;;11.70;8.60;;;;;;;9.47;100.00;100763.53;109602;1251;72688;-74
2023/10/15 01:59:55;;;;;;;13.50;9.60;;;;;;;9.46;100.00;100760.98;109538;1251;63867;-75
2023/10/15 02:02:24;;;;;;;10.60;8.60;;;;;;;9.44;100.00;100760.19;109528;1257;72749;-75
2023/10/15 02:04:57;;;;;;;10.00;7.60;;;;;;;9.43;100.00;100753.62;109548;1251;60945;-74
2023/10/15 02:07:25;;;;;;;10.00;8.00;;;;;;;9.42;100.00;100753.66;109596;1251;58885;-75
2023/10/15 02:09:53;;;;;;;15.10;9.00;;;;;;;9.42;100.00;100748.25;109623;1251;73859;-74
2023/10/15 02:12:21;;;;;;;16.90;9.60;;;;;;;9.41;100.00;100745.70;109602;1254;62491;-74
2023/10/15 02:14:48;;;;;;;15.50;9.80;;;;;;;9.38;100.00;100741.64;109661;1251;71755;-75
2023/10/15 02:17:18;;;;;;;13.40;9.40;;;;;;;9.37;100.00;100741.04;109400;1251;60455;-74
2023/10/15 02:19:47;;;;;;;12.30;8.70;;;;;;;9.36;100.00;100737.76;109564;1251;60071;-74
2023/10/15 02:24:34;;;;;;;12.40;9.40;;;;;;;9.34;100.00;100733.30;102434;1292;604284;-77
2023/10/15 02:27:06;;;;;;;20.20;14.90;;;;;;;9.31;100.00;100732.93;104948;1266;61151;-76
2023/10/15 02:32:21;;;;;;;15.00;10.10;;;;;;;9.30;100.00;100722.67;105447;1255;72187;-79
2023/10/15 02:34:51;;;;;;;13.00;10.00;;;;;;;9.30;100.00;100715.05;105601;1259;64397;-78
2023/10/15 02:37:27;;;;;;;14.60;9.80;;;;;;;9.30;100.00;100713.48;105366;1259;230785;-76
2023/10/15 02:39:57;;;;;;;16.00;10.20;;;;;;;9.31;100.00;100714.95;105461;1259;60724;-78
2023/10/15 02:42:35;;;;;;;14.30;10.60;;;;;;;9.32;100.00;100712.45;105648;1259;60310;-76
2023/10/15 02:45:06;;;;;;;13.80;9.50;;;;;;;9.33;100.00;100708.90;105777;1251;72182;-76
2023/10/15 02:47:41;;;;;;;13.20;9.60;;;;;;;9.36;100.00;100706.17;105897;1257;63870;-77
2023/10/15 02:50:16;;;;;;;17.60;12.70;;;;;;;9.38;100.00;100701.35;105975;1253;71631;-74
2023/10/15 02:52:43;;;;;;;17.70;14.20;;;;;;;9.40;100.00;100703.16;105960;1256;60665;-75
2023/10/15 02:55:16;;;;;;;15.70;10.70;;;;;;;9.41;100.00;100697.38;105974;1251;60319;-77
2023/10/15 02:57:44;;;;;;;14.30;10.20;;;;;;;9.42;100.00;100694.16;105921;1251;73063;-75
2023/10/15 03:02:45;;;;;;;13.80;9.10;;;;;;;9.44;100.00;100685.35;105926;1254;72663;-75
2023/10/15 03:05:15;;;;;;;13.50;10.10;;;;;;;9.43;100.00;100690.05;105958;1254;62003;-72
2023/10/15 03:07:42;;;;;;;12.00;8.30;;;;;;;9.44;100.00;100687.09;105899;1255;59629;-75
2023/10/15 03:10:21;;;;;;;11.50;9.20;;;;;;;9.43;100.00;100684.33;105884;1250;73255;-73
2023/10/15 03:12:48;;;;;;;13.80;9.30;;;;;;;9.44;100.00;100683.26;106149;1255;63902;-74
2023/10/15 03:15:16;;;;;;;12.00;9.60;;;;;;;9.43;100.00;100676.67;105937;1250;72660;-74
2023/10/15 03:17:44;;;;;;;13.30;9.30;;;;;;;9.42;100.00;100669.54;106013;1256;60475;-76
2023/10/15 03:22:45;;;;;;;14.70;10.20;;;;;;;9.41;100.00;100665.77;105840;1256;73105;-75
2023/10/15 03:25:16;;;;;;;12.60;9.40;;;;;;;9.41;100.00;100661.42;105800;1255;63946;-74
2023/10/15 03:27:46;;;;;;;13.80;9.80;;;;;;;9.41;100.00;100658.97;106045;1251;72742;-74
2023/10/15 03:30:14;;;;;;;15.20;10.90;;;;;;;9.42;100.00;100657.89;106003;1251;61082;-75
2023/10/15 03:32:44;;;;;;;15.80;11.10;;;;;;;9.42;100.00;100653.65;105950;1251;60034;-77
2023/10/15 03:35:18;;;;;;;16.70;12.20;;;;;;;9.43;100.00;100648.72;105961;1251;73043;-76
2023/10/15 03:37:45;;;;;;;16.50;11.20;;;;;;;9.43;100.00;100645.59;105907;1254;62283;-77
2023/10/15 03:40:30;;;;;;;13.80;10.20;;;;;;;9.43;100.00;100644.22;105865;1250;72729;-76
2023/10/15 03:43:06;;;;;;;13.80;10.50;;;;;;;9.42;100.00;100642.33;105917;1250;61122;-78
2023/10/15 03:45:39;;;;;;;16.40;9.70;;;;;;;9.43;100.00;100644.04;106110;1250;60309;-77
2023/10/15 03:48:09;;;;;;;12.40;9.50;;;;;;;9.42;100.00;100638.86;105914;1255;72825;-76
2023/10/15 03:50:44;;;;;;;14.60;10.40;;;;;;;9.42;100.00;100636.60;105916;1254;63914;-76
2023/10/15 03:53:11;;;;;;;12.10;10.20;;;;;;;9.43;100.00;100634.61;106066;1255;71359;-76
2023/10/15 03:55:38;;;;;;;13.30;10.90;;;;;;;9.44;100.00;100633.83;105733;1256;61990;-74
2023/10/15 03:58:13;;;;;;;14.60;10.70;;;;;;;9.46;100.00;100638.42;105941;1255;59794;-75
2023/10/15 04:00:46;;;;;;;16.80;11.50;;;;;;;9.50;100.00;100637.71;105864;1252;73063;-75
2023/10/15 04:03:28;;;;;;;15.70;11.90;;;;;;;9.55;100.00;100636.88;105990;1254;63898;-74
2023/10/15 04:06:01;;;;;;;27.00;13.20;;;;;;;9.62;100.00;100631.09;105906;1251;71508;-76
2023/10/15 04:08:31;;;;;;;21.80;13.70;;;;;;;9.69;100.00;100624.79;105945;1255;61931;-75
2023/10/15 04:10:58;;;;;;;21.00;14.40;;;;;;;9.75;100.00;100623.20;105985;1255;59714;-77
2023/10/15 04:13:28;;;;;;;18.80;13.90;;;;;;;9.81;100.00;100622.00;105934;1255;73028;-76
2023/10/15 04:15:56;;;;;;;22.60;13.90;;;;;;;9.86;100.00;100615.79;105828;1256;62605;-77
2023/10/15 04:18:23;;;;;;;20.10;13.80;;;;;;;9.89;100.00;100616.65;106000;1263;72614;-75
2023/10/15 04:20:55;;;;;;;16.30;11.90;;;;;;;9.92;100.00;100617.36;105999;1250;61845;-74
2023/10/15 04:23:31;;;;;;;15.80;12.90;;;;;;;9.93;100.00;100613.99;106009;1256;60395;-74
2023/10/15 04:26:00;;;;;;;20.20;12.00;;;;;;;9.94;100.00;100620.06;106016;1250;72975;-74
2023/10/15 04:28:30;;;;;;;15.70;11.90;;;;;;;9.93;100.00;100619.20;105903;1251;63713;-74
2023/10/15 04:30:57;;;;;;;13.20;10.90;;;;;;;9.94;100.00;100623.70;105890;1256;72399;-77
2023/10/15 04:33:27;;;;;;;15.80;11.20;;;;;;;9.95;100.00;100625.05;105895;1256;60711;-75
2023/10/15 04:35:57;;;;;;;12.80;10.80;;;;;;;9.95;100.00;100626.63;106013;1255;60339;-75
2023/10/15 04:38:30;;;;;;;12.70;9.90;;;;;;;9.95;100.00;100625.39;105969;1253;73134;-74
2023/10/15 04:43:25;;;;;;;14.30;10.20;;;;;;;9.96;100.00;100624.27;105940;1256;71943;-77
2023/10/15 04:45:56;;;;;;;12.40;9.60;;;;;;;9.98;100.00;100626.95;105979;1263;61896;-75
2023/10/15 04:48:27;;;;;;;16.50;12.20;;;;;;;10.01;100.00;100624.51;105984;1255;60193;-77
2023/10/15 04:50:54;;;;;;;13.60;9.20;;;;;;;10.05;100.00;100623.10;105973;1257;71634;-80
2023/10/15 04:55:48;;;;;;;13.60;10.50;;;;;;;10.10;100.00;100631.00;105930;1255;72712;-77
2023/10/15 04:58:15;;;;;;;14.10;9.40;;;;;;;10.13;100.00;100632.41;105978;1256;62075;-75
2023/10/15 05:00:49;;;;;;;13.50;10.30;;;;;;;10.14;100.00;100627.95;105871;1254;60435;-79
2023/10/15 05:03:16;;;;;;;11.60;9.90;;;;;;;10.18;100.00;100630.73;105947;1251;71628;-75
2023/10/15 05:05:43;;;;;;;13.70;9.80;;;;;;;10.21;100.00;100626.02;105899;1254;63926;-78
2023/10/15 05:08:11;;;;;;;12.90;8.80;;;;;;;10.26;100.00;100628.49;105753;1255;72719;-76
2023/10/15 05:10:44;;;;;;;13.70;10.70;;;;;;;10.35;100.00;100626.77;105958;1256;61893;-77
2023/10/15 05:13:13;;;;;;;15.10;11.00;;;;;;;10.44;100.00;100630.13;105935;1256;60093;-76
2023/10/15 05:15:42;;;;;;;14.10;10.50;;;;;;;10.49;100.00;100630.14;106098;1250;72906;-77
2023/10/15 05:18:09;;;;;;;13.90;11.90;;;;;;;10.58;100.00;100631.38;106021;1256;65423;-80
2023/10/15 05:20:36;;;;;;;14.70;10.90;;;;;;;10.69;100.00;100631.42;106078;1255;72704;-78
2023/10/15 05:23:05;;;;;;;16.50;11.70;;;;;;;10.77;100.00;100628.48;105915;1256;61790;-78
2023/10/15 05:25:32;;;;;;;14.90;10.40;;;;;;;10.85;100.00;100625.39;106068;1256;59496;-80
2023/10/15 05:28:02;;;;;;;12.30;8.90;;;;;;;10.94;100.00;100621.33;106030;1256;72782;-77
2023/10/15 05:30:30;;;;;;;13.90;10.10;;;;;;;11.05;100.00;100615.02;106008;1256;63742;-76
2023/10/15 05:33:00;;;;;;;15.30;10.90;;;;;;;11.20;100.00;100612.55;105925;1256;72459;-79
2023/10/15 05:35:28;;;;;;;14.10;10.10;;;;;;;11.40;100.00;100614.08;105999;1256;61896;-78
2023/10/15 05:37:55;;;;;;;11.60;9.40;;;;;;;11.80;100.00;100610.48;105890;1256;60336;-79
2023/10/15 05:40:22;;;;;;;14.40;8.90;;;;;;;12.51;100.00;100605.93;105980;1250;71757;-75
2023/10/15 05:42:51;;;;;;;12.40;9.60;;;;;;;13.37;100.00;100607.50;106052;1257;64048;-76
2023/10/15 05:45:19;;;;;;;16.70;8.80;;;;;;;14.24;100.00;100607.05;106020;1251;72682;-76
2023/10/15 05:47:45;;;;;;;10.90;8.40;;;;;;;15.07;100.00;100612.13;105826;1255;62018;-81
2023/10/15 05:50:13;;;;;;;14.40;9.00;;;;;;;15.86;100.00;100611.75;106005;1255;59512;-79
2023/10/15 05:52:40;;;;;;;13.70;9.10;;;;;;;16.57;100.00;100618.55;106058;1251;72995;-76
2023/10/15 05:55:07;;;;;;;13.80;8.20;;;;;;;17.25;100.00;100621.73;105953;1252;64085;-78
2023/10/15 05:57:34;;;;;;;10.20;7.60;;;;;;;17.94;100.00;100617.88;105942;1256;72645;-80
2023/10/15 06:00:19;;;;;;;11.70;8.20;;;;;;;18.57;100.00;100615.46;105924;1256;61941;-79
2023/10/15 06:02:48;;;;;;;9.90;7.40;;;;;;;19.29;100.00;100617.98;105940;1257;60081;-78
2023/10/15 06:05:15;;;;;;;12.30;7.00;;;;;;;19.86;100.00;100617.42;105810;1251;71731;-78
2023/10/15 06:07:45;;;;;;;6.90;6.10;;;;;;;20.39;100.00;100616.66;105935;1254;62607;-80
2023/10/15 06:10:12;;;;;;;8.90;5.10;;;;;;;20.85;100.00;100612.03;105926;1255;71646;-77
2023/10/15 06:12:40;;;;;;;9.00;5.10;;;;;;;21.27;100.00;100617.55;106073;1254;60594;-75
2023/10/15 06:15:08;;;;;;;6.20;4.90;;;;;;;21.74;97.49;100613.17;106031;1251;59956;-78
2023/10/15 06:17:35;;;;;;;8.80;5.10;;;;;;;22.06;92.28;100607.59;106094;1254;72092;-80
2023/10/15 06:20:14;;;;;;;7.60;5.00;;;;;;;22.26;88.82;100602.95;106040;1254;63956;-77
2023/10/15 06:22:42;;;;;;;7.70;5.10;;;;;;;22.40;86.36;100598.70;105998;1252;71328;-77
2023/10/15 06:25:11;;;;;;;8.70;4.70;;;;;;;22.27;83.25;100593.58;106576;1250;60304;-76
2023/10/15 06:27:39;;;;;;;6.00;4.50;;;;;;;21.88;83.35;100587.25;106414;1256;60245;-77
2023/10/15 06:30:16;;;;;;;6.30;4.60;;;;;;;21.35;86.68;100592.00;105997;1256;73068;-78
2023/10/15 06:32:50;;;;;;;7.40;5.00;;;;;;;20.82;90.79;100591.44;106075;1255;63930;-77
2023/10/15 06:35:20;;;;;;;6.70;4.90;;;;;;;20.34;94.49;100589.19;105854;1251;71494;-79
2023/10/15 06:37:49;;;;;;;6.90;5.50;;;;;;;19.91;98.13;100585.01;105936;1251;60579;-80
2023/10/15 06:40:16;;;;;;;10.60;6.30;;;;;;;19.46;99.97;100580.34;105899;1255;60462;-79
2023/10/15 06:43:00;;;;;;;;;;;;;;;19.04;100.00;100576.92;106038;1264;73901;-78
2023/10/15 06:45:28;;;;;;;10.50;5.70;;;;;;;18.67;100.00;100576.73;106017;1255;63672;-80
2023/10/15 06:47:58;;;;;;;9.40;5.50;;;;;;;18.34;100.00;100582.36;106013;1251;72714;-79
2023/10/15 06:50:25;;;;;;;6.50;5.40;;;;;;;17.98;100.00;100583.77;105818;1251;62050;-79
2023/10/15 06:52:54;;;;;;;6.90;6.20;;;;;;;17.69;100.00;100580.90;105949;1254;60537;-78
2023/10/15 06:55:22;;;;;;;7.50;5.70;;;;;;;17.50;100.00;100584.89;105739;1257;73849;-81
2023/10/15 06:57:49;;;;;;;7.00;5.30;;;;;;;17.35;100.00;100580.75;105813;1257;63620;-80
2023/10/15 07:00:24;;;;;;;10.00;6.60;;;;;;;17.18;100.00;100583.11;105964;1257;72609;-79
2023/10/15 07:02:54;;;;;;;9.00;5.90;;;;;;;16.98;100.00;100581.89;105859;1257;60637;-81
2023/10/15 07:05:25;;;;;;;8.50;5.90;;;;;;;16.81;100.00;100578.04;105966;1252;60546;-78
2023/10/15 07:07:56;;;;;;;7.60;5.50;;;;;;;16.67;100.00;100578.90;106023;1254;73909;-79
2023/10/15 07:10:23;;;;;;;7.80;6.00;;;;;;;16.54;100.00;100577.67;106007;1250;62940;-80
2023/10/15 07:12:50;;;;;;;7.60;5.70;;;;;;;16.43;100.00;100578.43;105886;1255;72667;-81
2023/10/15 07:15:20;;;;;;;7.10;5.10;;;;;;;16.34;100.00;100572.33;105807;1251;60475;-78
2023/10/15 07:17:55;;;;;;;9.20;5.80;;;;;;;16.27;100.00;100569.63;105960;1255;60448;-77
2023/10/15 07:20:24;;;;;;;8.60;5.80;;;;;;;16.21;100.00;100565.32;105820;1252;72858;-78
2023/10/15 07:22:53;;;;;;;13.20;5.90;;;;;;;16.18;100.00;100567.39;105910;1251;62459;-78
2023/10/15 07:25:21;;;;;;;8.10;4.70;;;;;;;16.26;100.00;100571.09;106015;1251;72642;-78
2023/10/15 07:27:49;;;;;;;11.40;5.90;;;;;;;16.64;100.00;100570.14;105854;1254;62032;-79
2023/10/15 07:30:17;;;;;;;8.10;5.70;;;;;;;17.36;100.00;100570.89;106011;1251;60407;-79
2023/10/15 07:32:44;;;;;;;7.90;5.60;;;;;;;18.26;100.00;100567.86;106017;1251;73690;-80
2023/10/15 07:35:14;;;;;;;6.80;5.50;;;;;;;19.21;100.00;100569.25;105934;1251;62604;-78
2023/10/15 07:37:41;;;;;;;8.90;5.70;;;;;;;20.19;100.00;100568.61;105913;1251;71571;-76
2023/10/15 07:40:19;;;;;;;8.90;5.90;;;;;;;21.13;100.00;100571.94;105977;1254;60804;-78
2023/10/15 07:42:50;;;;;;;8.90;4.60;;;;;;;22.02;96.89;100566.22;106022;1251;60441;-78
2023/10/15 07:45:26;;;;;;;10.10;6.40;;;;;;;22.66;84.37;100563.21;105984;1257;71568;-77
2023/10/15 07:47:59;;;;;;;8.30;5.10;;;;;;;23.18;77.70;100561.64;106005;1254;64158;-77
2023/10/15 07:50:26;;;;;;;6.00;5.10;;;;;;;23.77;70.45;100555.70;105907;1254;71754;-78
2023/10/15 07:52:55;;;;;;;9.20;5.10;;;;;;;24.27;62.16;100550.37;106083;1251;60494;-80
2023/10/15 07:55:26;;;;;;;9.00;5.60;;;;;;;24.61;58.28;100546.50;106084;1251;60418;-78
2023/10/15 07:57:53;;;;;;;6.90;5.20;;;;;;;24.93;56.28;100543.86;106017;1254;73736;-80
2023/10/15 08:00:33;;;;;;;8.00;5.40;;;;;;;25.28;53.86;100543.66;105970;1254;62659;-77
2023/10/15 08:03:00;;;;;;;8.90;5.10;;;;;;;25.69;52.74;100533.23;105981;1257;72556;-79
2023/10/15 08:05:32;;;;;;;6.10;5.50;;;;;;;26.17;51.57;100531.41;106019;1251;60526;-77
2023/10/15 08:08:05;;;;;;;5.70;4.90;;;;;;;26.72;50.02;100528.67;105877;1251;60677;-77
2023/10/15 08:10:34;;;;;;;7.00;4.90;;;;;;;27.22;47.51;100524.42;105840;1251;73978;-80
2023/10/15 08:13:06;;;;;;;5.70;5.00;;;;;;;27.70;46.18;100522.71;105935;1256;63785;-80
2023/10/15 08:15:34;;;;;;;5.30;4.70;;;;;;;28.18;44.14;100525.02;105988;1251;72670;-81
2023/10/15 08:18:02;;;;;;;6.50;5.10;;;;;;;28.57;41.85;100524.52;105914;1257;60559;-79
2023/10/15 08:20:31;;;;;;;8.20;5.40;;;;;;;28.89;41.19;100520.79;105930;1254;61066;-79
2023/10/15 08:22:58;;;;;;;7.70;4.70;;;;;;;29.19;39.95;100520.86;105942;1254;74311;-79
2023/10/15 08:25:26;;;;;;;4.90;4.40;;;;;;;29.46;39.18;100517.48;105863;1257;64287;-81
2023/10/15 08:27:52;;;;;;;4.40;4.00;;;;;;;29.74;38.21;100507.76;105929;1254;72879;-79
2023/10/15 08:30:19;;;;;;;4.40;3.80;;;;;;;30.00;37.61;100504.24;105880;1251;60492;-79
2023/10/15 08:32:47;;;;;;;9.50;4.10;;;;;;;30.25;36.91;100501.19;106036;1251;60540;-78
2023/10/15 08:35:15;;;;;;;5.80;3.70;;;;;;;30.43;35.75;100503.02;105886;1251;73714;-81
2023/10/15 08:37:43;;;;;;;3.60;2.90;;;;;;;30.48;35.32;100497.22;105991;1254;63919;-80
2023/10/15 08:40:16;;;;;;;3.30;2.50;;;;;;;30.65;35.19;100492.34;105924;1251;71665;-81
2023/10/15 08:42:59;;;;;;;3.40;2.30;;;;;;;30.91;34.28;100489.27;105995;1250;60432;-82
2023/10/15 08:45:29;;;;;;;2.90;2.40;;;;;;;31.04;33.90;100488.67;105999;1254;60436;-79
2023/10/15 08:47:58;;;;;;;6.70;2.90;;;;;;;31.09;33.37;100482.34;105893;1251;72470;-79
2023/10/15 08:50:27;;;;;;;3.80;2.90;;;;;;;30.97;33.13;100486.48;105873;1251;63690;-84
2023/10/15 08:52:54;;;;;;;3.30;2.80;;;;;;;30.85;33.65;100477.81;105782;1255;72790;-81
2023/10/15 08:55:24;;;;;;;2.90;2.30;;;;;;;30.95;33.78;100472.92;105768;1257;60471;-79
2023/10/15 08:57:54;;;;;;;5.50;2.60;;;;;;;31.26;33.22;100470.77;105867;1252;60615;-81
2023/10/15 09:00:25;;;;;;;3.50;2.30;;;;;;;31.52;32.64;100467.91;106060;1257;73310;-81
2023/10/15 09:03:00;;;;;;;3.00;2.60;;;;;;;31.67;31.95;100463.85;106011;1254;62683;-79
2023/10/15 09:05:33;;;;;;;5.30;2.10;;;;;;;31.66;31.89;100457.04;105976;1254;72798;-76
2023/10/15 09:08:07;;;;;;;3.70;2.20;;;;;;;31.71;32.10;100450.81;105808;1254;60550;-77
2023/10/15 09:10:36;;;;;;;3.80;2.50;;;;;;;31.86;31.95;100446.77;105928;1251;60640;-80
2023/10/15 09:13:04;;;;;;;3.00;2.20;;;;;;;32.07;31.28;100440.70;105951;1254;73951;-79
2023/10/15 09:15:31;;;;;;;2.70;2.20;;;;;;;32.19;30.95;100436.66;105953;1254;63934;-76
2023/10/15 09:17:59;;;;;;;4.00;2.10;;;;;;;32.26;30.83;100435.42;105990;1251;72440;-77
2023/10/15 09:20:32;;;;;;;2.40;2.20;;;;;;;32.38;30.56;100428.89;105859;1254;60577;-79
2023/10/15 09:23:00;;;;;;;2.50;2.10;;;;;;;32.61;30.42;100422.73;105961;1255;60464;-77
2023/10/15 09:25:30;;;;;;;3.40;2.50;;;;;;;32.85;29.83;100417.41;105909;1254;73955;-77
2023/10/15 09:27:58;;;;;;;4.50;3.10;;;;;;;33.03;29.76;100409.33;105920;1254;62517;-80
2023/10/15 09:30:25;;;;;;;6.10;2.70;;;;;;;33.14;29.11;100402.72;105743;1253;71409;-78
2023/10/15 09:32:52;;;;;;;4.90;2.80;;;;;;;33.06;29.58;100398.17;105849;1251;60492;-77
2023/10/15 09:35:20;;;;;;;3.70;2.40;;;;;;;33.04;29.39;100396.02;105875;1250;60495;-76
2023/10/15 09:37:55;;;;;;;5.80;2.50;;;;;;;32.99;28.44;100389.67;106020;1250;72621;-77
2023/10/15 09:40:30;;;;;;;4.20;2.30;;;;;;;32.74;28.45;100383.49;105793;1251;65135;-77
2023/10/15 09:42:59;;;;;;;4.50;2.70;;;;;;;32.47;28.52;100379.28;105964;1254;72749;-77
2023/10/15 09:45:30;;;;;;;4.40;2.30;;;;;;;32.34;29.13;100378.43;105881;1251;60440;-76
2023/10/15 09:47:57;;;;;;;3.80;2.50;;;;;;;32.32;29.39;100375.52;105765;1251;60454;-80
2023/10/15 09:50:25;;;;;;;6.10;3.20;;;;;;;32.44;29.18;100373.66;105898;1252;73707;-79
2023/10/15 09:53:01;;;;;;;3.40;2.70;;;;;;;32.55;28.81;100372.19;105933;1251;63907;-77
2023/10/15 09:55:32;;;;;;;6.50;2.80;;;;;;;32.54;28.78;100369.66;105901;1251;72737;-78
2023/10/15 09:58:06;;;;;;;3.00;2.70;;;;;;;32.48;29.18;100369.13;105983;1254;60553;-78
2023/10/15 10:03:30;;;;;;;3.50;2.90;;;;;;;32.77;28.96;100361.33;106801;1254;73681;-77
2023/10/15 10:06:44;;;;;;;4.10;2.50;;;;;;;33.00;28.51;100353.95;105963;1252;63861;-77
2023/10/15 10:09:38;;;;;;;3.10;2.60;;;;;;;33.09;28.53;100346.77;105961;1254;72558;-78
2023/10/15 10:12:25;;;;;;;2.40;2.10;;;;;;;33.11;28.58;100344.85;105972;1254;60834;-79
2023/10/15 10:14:57;;;;;;;3.20;2.40;;;;;;;33.23;28.72;100336.42;105897;1251;60481;-76
2023/10/15 10:17:25;;;;;;;;;;;;;;;33.38;28.31;100330.61;105915;1254;73950;-78
2023/10/15 10:19:52;;;;;;;2.20;2.00;;;;;;;33.47;28.21;100326.16;105938;1257;64203;-78
2023/10/15 10:22:29;;;;;;;5.20;2.40;;;;;;;33.54;28.00;100323.17;105735;1257;72489;-81
2023/10/15 10:24:58;;;;;;;2.90;2.60;;;;;;;33.49;27.45;100319.77;105864;1251;60476;-83
2023/10/15 10:27:26;;;;;;;3.80;2.60;;;;;;;33.34;27.72;100321.70;105879;1255;60461;-79
2023/10/15 10:29:54;;;;;;;4.80;1.90;;;;;;;33.11;28.03;100315.64;105777;1250;73907;-77
2023/10/15 10:32:22;;;;;;;5.30;2.50;;;;;;;32.89;28.28;100308.91;106002;1251;63960;-76
2023/10/15 10:35:23;;;;;;;4.20;3.20;;;;;;;32.71;28.47;100309.45;105846;1251;72671;-78
2023/10/15 10:38:01;;;;;;;2.80;1.80;;;;;;;32.62;28.60;100308.95;105893;1254;60566;-78
2023/10/15 10:40:47;;;;;;;3.00;2.30;;;;;;;32.64;28.41;100307.82;105881;1251;60351;-77
2023/10/15 10:43:16;;;;;;;5.00;2.90;;;;;;;32.65;28.40;100301.31;105858;1254;73603;-80
2023/10/15 10:45:56;;;;;;;8.30;2.80;;;;;;;32.59;28.51;100298.83;105764;1255;63219;-79
2023/10/15 10:48:24;;;;;;;3.70;2.50;;;;;;;32.33;28.49;100298.84;105908;1254;72581;-78
2023/10/15 10:51:12;;;;;;;4.10;3.30;;;;;;;31.88;28.85;100293.52;106092;1254;60510;-79
2023/10/15 10:53:59;;;;;;;3.40;2.90;;;;;;;31.35;29.51;100291.46;105922;1254;60438;-77
2023/10/15 10:56:39;;;;;;;3.90;2.10;;;;;;;30.81;29.52;100285.98;105914;1250;72465;-78
2023/10/15 10:59:10;;;;;;;6.40;3.10;;;;;;;30.21;30.24;100281.34;105913;1254;62303;-74
2023/10/15 11:01:39;;;;;;;3.40;2.30;;;;;;;29.56;31.17;100275.61;105957;1251;73649;-75
2023/10/15 11:04:07;;;;;;;3.50;2.40;;;;;;;29.01;31.59;100273.29;105794;1256;60647;-78
2023/10/15 11:06:45;;;;;;;5.10;2.80;;;;;;;28.41;32.28;100270.75;105870;1254;60811;-77
2023/10/15 11:09:15;;;;;;;2.70;2.40;;;;;;;27.76;33.21;100270.90;105925;1254;73694;-78
2023/10/15 11:11:52;;;;;;;6.10;2.80;;;;;;;27.24;34.20;100262.17;105862;1255;63856;-76
2023/10/15 11:14:25;;;;;;;4.30;3.70;;;;;;;26.75;34.78;100255.08;105905;1254;72711;-77
2023/10/15 11:16:52;;;;;;;3.20;2.80;;;;;;;26.33;35.76;100254.80;105993;1254;60543;-76
2023/10/15 11:19:23;;;;;;;4.20;2.40;;;;;;;25.94;36.11;100251.33;106026;1251;60492;-75
2023/10/15 11:21:51;;;;;;;3.70;2.20;;;;;;;25.61;36.34;100251.01;105742;1257;74769;-76
2023/10/15 11:24:20;;;;;;;3.50;2.00;;;;;;;25.25;37.17;100254.89;106016;1254;62366;-78
2023/10/15 11:26:47;;;;;;;2.60;2.10;;;;;;;24.92;38.29;100252.46;106066;1255;72389;-75
2023/10/15 11:29:16;;;;;;;4.00;2.20;;;;;;;24.63;40.16;100248.05;106002;1254;60818;-76
2023/10/15 11:31:44;;;;;;;3.00;2.50;;;;;;;24.42;42.73;100246.36;106040;1251;60366;-76
2023/10/15 11:34:12;;;;;;;5.00;2.80;;;;;;;24.20;44.01;100245.77;105851;1256;73637;-76
2023/10/15 11:36:43;;;;;;;3.20;2.10;;;;;;;23.99;44.89;100243.65;105916;1251;64066;-80
2023/10/15 11:39:18;;;;;;;3.60;1.90;;;;;;;23.77;45.65;100245.02;105876;1254;72572;-76
2023/10/15 11:41:51;;;;;;;4.00;2.50;;;;;;;23.54;46.22;100241.29;105872;1254;60437;-76
2023/10/15 11:44:26;;;;;;;5.80;2.60;;;;;;;23.37;45.64;100241.98;105629;1250;60569;-75
2023/10/15 11:46:56;;;;;;;3.50;2.00;;;;;;;23.19;46.15;100236.70;105893;1254;72639;-75
2023/10/15 11:49:25;;;;;;;3.50;2.30;;;;;;;23.05;46.41;100237.98;105933;1251;63882;-78
2023/10/15 11:51:55;;;;;;;3.20;2.70;;;;;;;22.92;46.84;100237.26;105865;1256;72656;-78